Time;durP1;ratioP1;P1;durP2;ratioP2;P2;SDS_P1;SDS_P2;PMS_P1;PMS_P2;Temp;Humidity;BMP_temperature;BMP_pressure;BME280_temperature;BME280_humidity;BME280_pressure;Samples;Min_cycle;Max_cycle;Signal;HPM_P1;HPM_P2
2021/10/02 00:02:09;;;;;;;0.20;0.20;;;8.10;99.90;;;;;;4839022;28;20197;-77
2021/10/02 00:31:37;;;;;;;0.27;0.27;;;7.40;30.80;;;;;;4876014;28;20201;-78
2021/10/02 00:34:18;;;;;;;0.30;0.30;;;7.80;31.00;;;;;;4875786;28;20212;-78
2021/10/02 00:44:58;;;;;;;0.43;0.43;;;;;;;;;;4858729;28;20193;-78
2021/10/02 00:47:22;;;;;;;0.27;0.27;;;7.30;32.10;;;;;;4875707;28;20275;-78
2021/10/02 00:49:46;;;;;;;0.23;0.23;;;7.20;32.60;;;;;;4875661;28;20250;-79
2021/10/02 00:52:10;;;;;;;0.40;0.40;;;7.20;32.90;;;;;;4875515;28;20201;-78
2021/10/02 00:54:33;;;;;;;0.30;0.30;;;;;;;;;;4875597;28;20227;-77
2021/10/02 00:56:57;;;;;;;0.30;0.30;;;7.10;33.30;;;;;;4875132;28;20525;-78
2021/10/02 00:59:21;;;;;;;0.30;0.30;;;7.00;32.60;;;;;;4875673;28;20197;-78
2021/10/02 01:01:52;;;;;;;0.30;0.30;;;7.20;32.40;;;;;;4874676;28;20249;-76
2021/10/02 01:04:20;;;;;;;0.23;0.23;;;7.10;33.40;;;;;;4858928;28;20248;-77
2021/10/02 01:06:52;;;;;;;0.30;0.30;;;7.00;33.40;;;;;;4875487;28;20659;-77
2021/10/02 01:09:25;;;;;;;0.30;0.30;;;7.00;33.40;;;;;;4875769;28;20200;-77
2021/10/02 01:11:54;;;;;;;0.30;0.30;;;7.10;32.80;;;;;;4876652;28;20189;-79
2021/10/02 01:14:25;;;;;;;0.20;0.20;;;7.00;33.80;;;;;;4876182;28;20181;-77
2021/10/02 01:16:50;;;;;;;0.30;0.30;;;7.00;33.80;;;;;;4875183;28;20197;-79
2021/10/02 01:19:41;;;;;;;0.40;0.40;;;6.60;33.30;;;;;;4857830;28;20229;-77
2021/10/02 01:22:13;;;;;;;0.20;0.20;;;6.80;33.80;;;;;;4857084;28;20174;-78
2021/10/02 01:24:49;;;;;;;0.20;0.20;;;6.90;33.90;;;;;;4874193;28;20189;-77
2021/10/02 01:27:39;;;;;;;0.30;0.30;;;6.80;33.10;;;;;;4875725;28;20181;-78
2021/10/02 01:30:05;;;;;;;0.27;0.27;;;6.90;33.00;;;;;;4876386;28;20184;-76
2021/10/02 01:32:32;;;;;;;0.30;0.30;;;6.70;32.80;;;;;;4874860;28;20776;-78
2021/10/02 01:35:04;;;;;;;0.20;0.20;;;6.80;33.60;;;;;;4875013;28;20198;-77
2021/10/02 01:37:37;;;;;;;0.20;0.20;;;7.00;33.50;;;;;;4875882;28;20667;-78
2021/10/02 01:48:22;;;;;;;0.30;0.30;;;6.70;32.90;;;;;;4875874;28;20182;-77
2021/10/02 01:50:49;;;;;;;0.33;0.33;;;6.60;32.80;;;;;;4874928;28;20209;-78
2021/10/02 01:53:13;;;;;;;0.30;0.30;;;6.70;33.50;;;;;;4875741;28;20231;-77
2021/10/02 01:55:38;;;;;;;0.20;0.20;;;6.60;33.40;;;;;;4857524;28;20193;-78
2021/10/02 01:58:05;;;;;;;0.50;0.50;;;6.50;32.70;;;;;;4875877;28;20264;-77
2021/10/02 02:00:28;;;;;;;0.63;0.63;;;;;;;;;;4873101;28;20201;-77
2021/10/02 02:02:55;;;;;;;0.20;0.20;;;6.40;32.10;;;;;;4855131;28;20225;-77
2021/10/02 02:05:20;;;;;;;0.20;0.20;;;6.70;31.90;;;;;;4867751;28;20236;-77
2021/10/02 02:07:49;;;;;;;0.23;0.23;;;6.60;32.60;;;;;;4875251;28;20239;-77
2021/10/02 02:10:12;;;;;;;0.20;0.20;;;6.60;32.10;;;;;;4875564;28;20319;-77
2021/10/02 02:12:35;;;;;;;0.30;0.30;;;6.70;32.40;;;;;;4874363;28;20259;-77
2021/10/02 02:15:01;;;;;;;0.27;0.27;;;6.70;33.00;;;;;;4874300;28;20197;-78
2021/10/02 02:17:26;;;;;;;0.30;0.30;;;6.60;33.10;;;;;;4873978;28;20197;-77
2021/10/02 02:19:49;;;;;;;0.30;0.30;;;6.60;33.10;;;;;;4874466;28;20685;-77
2021/10/02 02:22:12;;;;;;;0.20;0.20;;;6.50;32.70;;;;;;4856521;28;20190;-77
2021/10/02 02:24:35;;;;;;;0.30;0.30;;;6.60;33.20;;;;;;4847693;28;20244;-77
2021/10/02 02:26:59;;;;;;;0.23;0.23;;;6.30;33.50;;;;;;4874425;28;20585;-77
2021/10/02 02:29:22;;;;;;;0.30;0.30;;;6.50;32.90;;;;;;4874643;28;20323;-78
2021/10/02 02:31:47;;;;;;;0.30;0.30;;;6.50;33.60;;;;;;4879641;28;20193;-80
2021/10/02 02:34:10;;;;;;;0.37;0.37;;;6.50;32.80;;;;;;4879827;28;20255;-80
2021/10/02 02:36:33;;;;;;;0.20;0.20;;;6.90;33.50;;;;;;4875832;28;20177;-80
2021/10/02 02:38:56;;;;;;;0.40;0.40;;;;;;;;;;4875037;28;20665;-77
2021/10/02 02:41:18;;;;;;;0.20;0.20;;;6.50;32.20;;;;;;4875924;28;20235;-79
2021/10/02 02:43:41;;;;;;;0.30;0.30;;;6.60;31.90;;;;;;4873726;28;20205;-78
2021/10/02 02:46:09;;;;;;;0.40;0.40;;;6.50;32.40;;;;;;4871516;28;20221;-79
2021/10/02 02:48:38;;;;;;;0.30;0.30;;;6.50;31.80;;;;;;4857490;28;20714;-78
2021/10/02 02:51:04;;;;;;;0.30;0.30;;;6.40;31.60;;;;;;4874095;28;20202;-80
2021/10/02 02:53:42;;;;;;;0.30;0.30;;;6.60;31.70;;;;;;4875369;28;20185;-80
2021/10/02 02:56:11;;;;;;;0.33;0.33;;;6.40;32.20;;;;;;4873855;28;20201;-77
2021/10/02 02:58:35;;;;;;;0.30;0.30;;;6.40;31.90;;;;;;4874847;28;20201;-80
2021/10/02 03:01:01;;;;;;;0.40;0.40;;;6.40;31.90;;;;;;4872318;28;20197;-79
2021/10/02 03:03:27;;;;;;;0.30;0.30;;;6.30;32.10;;;;;;4873787;28;20225;-79
2021/10/02 03:05:52;;;;;;;0.27;0.27;;;7.10;32.40;;;;;;4875245;28;20701;-78
2021/10/02 03:08:19;;;;;;;0.30;0.30;;;6.40;32.80;;;;;;4872714;28;20243;-78
2021/10/02 03:10:48;;;;;;;0.20;0.20;;;6.40;31.70;;;;;;4857808;28;20271;-79
2021/10/02 03:13:12;;;;;;;0.40;0.40;;;6.40;32.00;;;;;;4873136;28;20209;-79
2021/10/02 03:15:37;;;;;;;0.20;0.20;;;6.50;31.00;;;;;;4874195;28;20611;-79
2021/10/02 03:18:00;;;;;;;0.40;0.40;;;6.60;31.40;;;;;;4872545;28;20652;-78
2021/10/02 03:20:23;;;;;;;0.30;0.30;;;6.70;30.70;;;;;;4875209;28;20227;-78
2021/10/02 03:22:50;;;;;;;0.30;0.30;;;6.50;30.80;;;;;;4878829;28;20244;-79
2021/10/02 03:25:13;;;;;;;0.30;0.30;;;6.60;31.10;;;;;;4841367;28;20647;-78
2021/10/02 03:27:37;;;;;;;0.30;0.30;;;;;;;;;;4869699;28;20198;-79
2021/10/02 03:30:00;;;;;;;0.33;0.33;;;6.70;99.90;;;;;;4877400;28;20209;-78
2021/10/02 03:32:24;;;;;;;0.33;0.33;;;6.80;30.30;;;;;;4876850;28;20205;-78
2021/10/02 03:34:47;;;;;;;0.27;0.27;;;7.20;99.90;;;;;;4876514;28;20648;-78
2021/10/02 03:37:10;;;;;;;0.30;0.30;;;6.70;99.90;;;;;;4859517;28;20194;-79
2021/10/02 03:39:34;;;;;;;0.33;0.33;;;6.90;30.00;;;;;;4876484;28;20282;-78
2021/10/02 03:42:08;;;;;;;0.30;0.30;;;6.70;30.10;;;;;;4860001;28;20237;-78
2021/10/02 03:44:31;;;;;;;0.30;0.30;;;6.80;30.40;;;;;;4847517;28;20240;-79
2021/10/02 03:46:53;;;;;;;0.30;0.30;;;6.70;31.10;;;;;;4876353;28;20375;-78
2021/10/02 03:49:16;;;;;;;0.30;0.30;;;6.50;31.40;;;;;;4876990;28;20607;-79
2021/10/02 03:51:39;;;;;;;0.33;0.33;;;6.70;31.10;;;;;;4859520;28;20193;-78
2021/10/02 03:54:01;;;;;;;0.30;0.30;;;6.90;31.10;;;;;;4875945;28;20209;-79
2021/10/02 03:56:29;;;;;;;0.37;0.37;;;6.70;32.00;;;;;;4876275;28;20198;-78
2021/10/02 03:58:52;;;;;;;0.30;0.30;;;6.70;31.90;;;;;;4877840;28;20217;-78
2021/10/02 04:01:15;;;;;;;0.33;0.33;;;6.70;31.60;;;;;;4874937;28;20205;-78
2021/10/02 04:03:37;;;;;;;0.23;0.23;;;;;;;;;;4876109;28;20229;-78
2021/10/02 04:06:00;;;;;;;0.33;0.33;;;;;;;;;;4877679;28;20189;-79
2021/10/02 04:08:23;;;;;;;0.30;0.30;;;6.70;32.10;;;;;;4876156;28;20755;-79
2021/10/02 04:10:45;;;;;;;0.20;0.20;;;;;;;;;;4859768;28;20194;-77
2021/10/02 04:13:09;;;;;;;0.30;0.30;;;6.30;32.90;;;;;;4877235;28;20247;-78
2021/10/02 04:15:34;;;;;;;0.20;0.20;;;6.40;32.70;;;;;;4877750;28;20186;-79
2021/10/02 04:17:57;;;;;;;0.30;0.30;;;6.30;32.50;;;;;;4875718;28;20650;-79
2021/10/02 04:20:19;;;;;;;0.27;0.27;;;6.50;32.50;;;;;;4859290;28;20213;-78
2021/10/02 04:22:42;;;;;;;0.30;0.30;;;6.50;32.50;;;;;;4877095;28;20193;-78
2021/10/02 04:25:05;;;;;;;0.30;0.30;;;6.40;33.30;;;;;;4875923;28;20650;-77
2021/10/02 04:27:28;;;;;;;0.30;0.30;;;6.40;32.60;;;;;;4875908;28;20865;-79
2021/10/02 04:29:52;;;;;;;0.30;0.30;;;6.40;33.40;;;;;;4876220;28;20251;-78
2021/10/02 04:32:15;;;;;;;0.23;0.23;;;;;;;;;;4858868;28;20590;-79
2021/10/02 04:34:37;;;;;;;0.20;0.20;;;;;;;;;;4877165;28;20189;-77
2021/10/02 04:37:00;;;;;;;0.30;0.30;;;;;;;;;;4858576;28;20649;-77
2021/10/02 04:39:23;;;;;;;0.30;0.30;;;6.20;33.10;;;;;;4875503;28;20213;-79
2021/10/02 04:41:45;;;;;;;0.30;0.30;;;6.30;32.90;;;;;;4859054;28;20248;-79
2021/10/02 04:44:08;;;;;;;0.30;0.30;;;6.30;33.20;;;;;;4875086;28;20193;-79
2021/10/02 04:46:33;;;;;;;0.33;0.33;;;6.30;33.10;;;;;;4877099;28;20201;-80
2021/10/02 04:48:55;;;;;;;0.30;0.30;;;;;;;;;;4875431;28;20255;-78
2021/10/02 04:51:18;;;;;;;0.30;0.30;;;;;;;;;;4876873;28;20200;-77
2021/10/02 04:53:41;;;;;;;0.30;0.30;;;6.30;32.70;;;;;;4875464;28;20189;-78
2021/10/02 04:56:07;;;;;;;0.30;0.30;;;5.90;32.40;;;;;;4876713;28;20255;-78
2021/10/02 04:58:30;;;;;;;0.30;0.30;;;6.30;32.70;;;;;;4876704;28;20193;-79
2021/10/02 05:00:52;;;;;;;0.30;0.30;;;7.00;32.70;;;;;;4874783;28;20239;-79
2021/10/02 05:03:16;;;;;;;0.30;0.30;;;6.40;31.60;;;;;;4875244;28;20225;-80
2021/10/02 05:05:39;;;;;;;0.20;0.20;;;6.00;32.00;;;;;;4876207;28;20185;-78
2021/10/02 05:08:01;;;;;;;0.30;0.30;;;6.50;32.70;;;;;;4875379;28;20675;-78
2021/10/02 05:10:24;;;;;;;0.30;0.30;;;6.50;33.00;;;;;;4875324;28;20201;-77
2021/10/02 05:12:47;;;;;;;0.30;0.30;;;6.90;33.00;;;;;;4876645;28;20208;-79
2021/10/02 05:15:10;;;;;;;0.30;0.30;;;6.60;32.60;;;;;;4875717;28;20185;-78
2021/10/02 05:17:33;;;;;;;0.30;0.30;;;;;;;;;;4874998;28;20682;-78
2021/10/02 05:19:57;;;;;;;0.30;0.30;;;6.60;33.30;;;;;;4874812;28;20760;-78
2021/10/02 05:22:20;;;;;;;0.20;0.20;;;;;;;;;;4875921;28;20772;-75
2021/10/02 05:24:42;;;;;;;0.23;0.23;;;6.60;32.70;;;;;;4874929;28;20224;-78
2021/10/02 05:27:08;;;;;;;0.37;0.37;;;6.60;31.90;;;;;;4874582;28;20675;-77
2021/10/02 05:29:31;;;;;;;0.40;0.40;;;;;;;;;;4858699;28;20256;-79
2021/10/02 05:31:53;;;;;;;0.40;0.40;;;;;;;;;;4857776;28;20233;-78
2021/10/02 05:34:16;;;;;;;0.30;0.30;;;6.70;31.10;;;;;;4874231;28;20708;-79
2021/10/02 05:36:40;;;;;;;0.20;0.20;;;6.90;30.90;;;;;;4858059;28;20202;-78
2021/10/02 05:39:03;;;;;;;0.37;0.37;;;6.70;31.40;;;;;;4857121;28;20243;-78
2021/10/02 05:41:26;;;;;;;0.30;0.30;;;7.00;30.60;;;;;;4875069;28;20700;-78
2021/10/02 05:43:49;;;;;;;0.30;0.30;;;;;;;;;;4856438;28;20194;-79
2021/10/02 05:46:11;;;;;;;0.40;0.40;;;;;;;;;;4874540;28;20275;-79
2021/10/02 05:48:34;;;;;;;0.30;0.30;;;;;;;;;;4875110;28;20245;-79
2021/10/02 05:50:57;;;;;;;0.30;0.30;;;7.40;30.60;;;;;;4857035;28;20711;-79
2021/10/02 05:53:21;;;;;;;0.23;0.23;;;7.40;31.20;;;;;;4875858;28;20239;-77
2021/10/02 05:55:43;;;;;;;0.40;0.40;;;;;;;;;;4875882;28;20185;-79
2021/10/02 05:58:06;;;;;;;0.40;0.40;;;;;;;;;;4874780;28;20189;-79
2021/10/02 06:00:29;;;;;;;1.40;1.30;;;;;;;;;;4856281;28;20220;-78
2021/10/02 06:02:51;;;;;;;0.30;0.30;;;7.80;31.40;;;;;;4874402;28;20258;-79
2021/10/02 06:05:14;;;;;;;0.30;0.30;;;;;;;;;;4875614;28;20194;-79
2021/10/02 06:07:37;;;;;;;0.23;0.23;;;7.90;32.10;;;;;;4875346;28;20231;-79
2021/10/02 06:10:01;;;;;;;0.30;0.30;;;8.00;33.30;;;;;;4857584;28;20660;-76
2021/10/02 06:12:23;;;;;;;0.30;0.30;;;7.90;32.90;;;;;;4874277;28;20210;-78
2021/10/02 06:14:46;;;;;;;0.40;0.40;;;8.10;34.00;;;;;;4873809;28;20236;-80
2021/10/02 06:17:10;;;;;;;0.50;0.50;;;8.20;34.70;;;;;;4873135;28;20255;-79
2021/10/02 06:19:33;;;;;;;0.40;0.40;;;8.30;34.70;;;;;;4872160;28;20654;-79
2021/10/02 06:21:56;;;;;;;0.20;0.20;;;8.40;35.20;;;;;;4875187;28;20206;-80
2021/10/02 06:24:19;;;;;;;0.30;0.30;;;8.10;36.30;;;;;;4873927;28;21155;-80
2021/10/02 06:26:43;;;;;;;0.33;0.33;;;8.60;36.90;;;;;;4874779;28;20235;-79
2021/10/02 06:29:08;;;;;;;0.60;0.60;;;8.80;37.50;;;;;;4867172;28;20206;-79
2021/10/02 06:31:30;;;;;;;0.40;0.40;;;9.10;36.90;;;;;;4873964;28;20193;-80
2021/10/02 06:33:53;;;;;;;0.27;0.27;;;;;;;;;;4872439;28;20186;-77
2021/10/02 06:36:16;;;;;;;0.50;0.50;;;9.30;39.90;;;;;;4874705;28;20185;-78
2021/10/02 06:38:39;;;;;;;0.30;0.30;;;9.80;41.20;;;;;;4874639;28;20201;-77
2021/10/02 06:41:02;;;;;;;0.50;0.50;;;9.80;42.20;;;;;;4875394;28;20213;-77
2021/10/02 06:43:26;;;;;;;0.53;0.53;;;10.30;42.80;;;;;;4857035;28;20197;-78
2021/10/02 06:45:49;;;;;;;0.40;0.40;;;9.50;43.00;;;;;;4873186;28;20675;-78
2021/10/02 06:48:11;;;;;;;0.40;0.40;;;9.70;43.40;;;;;;4874245;28;20189;-78
2021/10/02 06:50:35;;;;;;;0.20;0.20;;;9.90;44.30;;;;;;4875456;28;20189;-78
2021/10/02 06:52:57;;;;;;;0.33;0.33;;;10.40;43.70;;;;;;4873580;28;20335;-78
2021/10/02 06:55:20;;;;;;;0.33;0.33;;;;;;;;;;4878323;28;20193;-78
2021/10/02 06:57:43;;;;;;;0.37;0.37;;;10.30;43.90;;;;;;4877948;28;20197;-77
2021/10/02 07:00:08;;;;;;;0.50;0.50;;;10.30;44.30;;;;;;4877853;28;20251;-78
2021/10/02 07:02:31;;;;;;;0.33;0.33;;;;;;;;;;4877210;28;20217;-80
2021/10/02 07:04:54;;;;;;;0.33;0.33;;;10.60;44.60;;;;;;4877673;28;20224;-77
2021/10/02 07:07:16;;;;;;;0.47;0.47;;;11.00;44.90;;;;;;4878907;28;20639;-78
2021/10/02 07:09:39;;;;;;;0.60;0.60;;;10.70;44.90;;;;;;4878512;28;20242;-78
2021/10/02 07:12:02;;;;;;;0.43;0.43;;;11.00;45.10;;;;;;4877605;28;20697;-78
2021/10/02 07:14:25;;;;;;;0.40;0.40;;;10.90;45.40;;;;;;4879085;28;20189;-79
2021/10/02 07:16:49;;;;;;;0.40;0.40;;;10.90;45.90;;;;;;4879168;28;20206;-78
2021/10/02 07:19:11;;;;;;;0.60;0.60;;;;;;;;;;4878685;28;20227;-79
2021/10/02 07:21:34;;;;;;;0.30;0.30;;;;;;;;;;4878816;28;20270;-80
2021/10/02 07:23:56;;;;;;;0.40;0.40;;;11.00;46.00;;;;;;4878840;28;20204;-80
2021/10/02 07:26:19;;;;;;;0.20;0.20;;;;;;;;;;4877339;28;20589;-79
2021/10/02 07:28:42;;;;;;;0.43;0.43;;;;;;;;;;4878280;28;20189;-79
2021/10/02 07:31:04;;;;;;;1.00;0.60;;;11.80;46.00;;;;;;4878761;28;20255;-80
2021/10/02 07:33:28;;;;;;;0.40;0.40;;;11.80;46.50;;;;;;4877475;28;20912;-79
2021/10/02 07:35:51;;;;;;;0.30;0.30;;;12.10;46.30;;;;;;4878720;28;20169;-79
2021/10/02 07:38:14;;;;;;;0.63;0.63;;;;;;;;;;4878333;28;20193;-80
2021/10/02 07:40:38;;;;;;;0.30;0.30;;;12.30;47.00;;;;;;4877491;28;20225;-80
2021/10/02 07:43:03;;;;;;;0.30;0.30;;;12.40;47.30;;;;;;4878513;28;20185;-81
2021/10/02 07:45:27;;;;;;;0.40;0.40;;;12.70;47.50;;;;;;4878711;28;20259;-81
2021/10/02 07:47:52;;;;;;;0.30;0.30;;;13.00;47.70;;;;;;4878495;28;20256;-80
2021/10/02 07:50:17;;;;;;;0.50;0.50;;;13.30;47.50;;;;;;4878207;28;20438;-79
2021/10/02 07:52:41;;;;;;;0.40;0.40;;;13.30;48.10;;;;;;4878441;28;20193;-79
2021/10/02 07:55:04;;;;;;;0.37;0.37;;;13.90;48.50;;;;;;4878410;28;20232;-86
2021/10/02 07:57:27;;;;;;;0.40;0.40;;;14.10;48.30;;;;;;4878435;28;20185;-80
2021/10/02 07:59:50;;;;;;;0.30;0.30;;;14.70;48.60;;;;;;4877086;28;20292;-80
2021/10/02 08:02:16;;;;;;;0.40;0.40;;;15.80;49.80;;;;;;4874710;28;20233;-79
2021/10/02 08:04:42;;;;;;;0.20;0.20;;;14.90;49.20;;;;;;4878413;28;20166;-79
2021/10/02 08:07:06;;;;;;;0.33;0.33;;;16.40;50.20;;;;;;4877334;28;20239;-81
2021/10/02 08:09:29;;;;;;;0.40;0.40;;;;;;;;;;4876972;28;20194;-78
2021/10/02 08:11:51;;;;;;;0.30;0.30;;;15.70;50.00;;;;;;4877165;28;20593;-81
2021/10/02 08:14:13;;;;;;;0.40;0.40;;;15.20;49.40;;;;;;4877967;28;20217;-79
2021/10/02 08:16:38;;;;;;;0.50;0.50;;;15.60;50.10;;;;;;4860324;28;20251;-80
2021/10/02 08:19:01;;;;;;;0.30;0.30;;;15.60;50.00;;;;;;4876714;28;20206;-81
2021/10/02 08:21:26;;;;;;;0.30;0.30;;;15.70;50.10;;;;;;4876463;28;20221;-82
2021/10/02 08:23:50;;;;;;;0.20;0.20;;;16.20;49.70;;;;;;4878163;28;20179;-88
2021/10/02 08:26:15;;;;;;;0.73;0.73;;;15.60;49.60;;;;;;4877690;28;20587;-80
2021/10/02 08:28:39;;;;;;;0.30;0.30;;;16.30;50.00;;;;;;4877905;28;20636;-78
2021/10/02 08:31:03;;;;;;;0.20;0.20;;;16.20;50.70;;;;;;4877562;28;20194;-78
2021/10/02 08:33:26;;;;;;;0.47;0.47;;;;;;;;;;4877719;28;20238;-79
2021/10/02 08:35:48;;;;;;;1.03;0.63;;;16.80;51.20;;;;;;4877763;28;20263;-84
2021/10/02 08:38:12;;;;;;;2.37;1.20;;;16.00;50.30;;;;;;4877069;28;20178;-78
2021/10/02 08:40:36;;;;;;;1.10;0.60;;;16.60;51.20;;;;;;4876395;28;20185;-79
2021/10/02 08:42:59;;;;;;;0.97;0.50;;;16.70;50.80;;;;;;4877483;28;20239;-78
2021/10/02 08:45:22;;;;;;;0.80;0.50;;;17.30;51.70;;;;;;4878009;28;20205;-79
2021/10/02 08:47:47;;;;;;;1.23;0.67;;;17.70;51.50;;;;;;4877490;28;20304;-79
2021/10/02 08:50:11;;;;;;;4.07;1.30;;;18.00;52.40;;;;;;4877198;28;20235;-82
2021/10/02 08:52:34;;;;;;;2.23;0.70;;;18.10;52.20;;;;;;4859931;28;20199;-82
2021/10/02 08:55:00;;;;;;;3.90;0.80;;;18.20;52.10;;;;;;4876149;28;20196;-79
2021/10/02 08:57:25;;;;;;;3.87;0.60;;;19.20;53.90;;;;;;4877279;28;20246;-78
2021/10/02 08:59:48;;;;;;;4.03;0.80;;;;;;;;;;4859334;28;20652;-83
2021/10/02 09:02:11;;;;;;;8.10;1.40;;;;;;;;;;4874642;28;20283;-79
2021/10/02 09:04:34;;;;;;;4.53;0.80;;;;;;;;;;4876230;28;20206;-84
2021/10/02 09:06:57;;;;;;;3.87;0.80;;;;;;;;;;4877276;28;20183;-80
2021/10/02 09:09:21;;;;;;;7.73;1.90;;;;;;;;;;4875822;28;20208;-84
2021/10/02 09:11:44;;;;;;;2.73;0.60;;;;;;;;;;4877149;28;20186;-81
2021/10/02 09:14:11;;;;;;;8.77;1.77;;;26.70;46.20;;;;;;4876813;28;20191;-80
2021/10/02 09:16:34;;;;;;;4.20;0.93;;;;;;;;;;4876868;28;20203;-84
2021/10/02 09:18:57;;;;;;;5.17;1.00;;;27.70;46.80;;;;;;4875712;28;20616;-82
2021/10/02 09:21:20;;;;;;;7.57;1.60;;;;;;;;;;4876298;28;20206;-80
2021/10/02 09:23:44;;;;;;;3.83;0.90;;;30.30;48.30;;;;;;4877310;28;20253;-75
2021/10/02 09:26:07;;;;;;;6.73;1.23;;;;;;;;;;4876676;28;20321;-85
2021/10/02 09:28:39;;;;;;;3.73;0.80;;;30.30;48.60;;;;;;4877156;28;20204;-84
2021/10/02 09:31:06;;;;;;;3.30;0.60;;;30.20;47.60;;;;;;4877075;28;20184;-86
2021/10/02 09:33:29;;;;;;;4.07;0.83;;;;;;;;;;4877021;28;20238;-87
2021/10/02 09:35:54;;;;;;;7.50;1.30;;;30.80;48.00;;;;;;4877247;28;20250;-85
2021/10/02 09:38:19;;;;;;;10.80;1.73;;;30.10;48.70;;;;;;4876694;28;20242;-79
2021/10/02 09:40:49;;;;;;;5.23;0.90;;;30.50;47.80;;;;;;4877221;28;20189;-86
2021/10/02 09:43:12;;;;;;;8.73;1.37;;;;;;;;;;4877154;28;20184;-81
2021/10/02 09:45:38;;;;;;;5.00;0.83;;;33.50;49.90;;;;;;4877085;28;20213;-82
2021/10/02 09:48:04;;;;;;;5.13;0.83;;;34.50;49.50;;;;;;4876713;28;20188;-85
2021/10/02 09:50:29;;;;;;;4.90;0.80;;;36.30;51.10;;;;;;4877109;28;20196;-83
2021/10/02 09:52:55;;;;;;;5.10;0.80;;;36.80;51.30;;;;;;4876713;28;20578;-80
2021/10/02 09:55:23;;;;;;;10.80;1.57;;;36.50;51.40;;;;;;4877040;28;20185;-87
2021/10/02 09:57:48;;;;;;;1.40;0.20;;;36.70;51.50;;;;;;4875767;28;20231;-82
2021/10/02 10:00:13;;;;;;;20.67;2.65;;;35.40;50.00;;;;;;4875930;28;20184;-86
2021/10/02 10:02:39;;;;;;;7.80;0.97;;;33.30;50.40;;;;;;4874501;28;20232;-83
2021/10/02 10:05:03;;;;;;;6.07;0.90;;;31.70;49.90;;;;;;4876573;28;20769;-79
2021/10/02 10:07:26;;;;;;;4.27;0.73;;;;;;;;;;4876467;28;20194;-75
2021/10/02 10:10:01;;;;;;;6.23;1.03;;;32.00;49.50;;;;;;4876360;28;20561;-85
2021/10/02 10:12:25;;;;;;;10.37;1.70;;;31.60;48.90;;;;;;4875838;28;20686;-80
2021/10/02 10:14:48;;;;;;;4.10;0.70;;;;;;;;;;4875850;28;20199;-76
2021/10/02 10:17:16;;;;;;;9.07;1.40;;;33.30;50.40;;;;;;4875909;28;20188;-77
2021/10/02 10:19:40;;;;;;;4.83;0.87;;;;;;;;;;4874933;28;20685;-75
2021/10/02 10:22:10;;;;;;;4.83;0.90;;;34.00;49.90;;;;;;4876027;28;20189;-78
2021/10/02 10:24:32;;;;;;;5.10;0.87;;;;;;;;;;4876023;28;20647;-79
2021/10/02 10:26:56;;;;;;;5.93;1.08;;;34.60;50.90;;;;;;4875785;28;20223;-78
2021/10/02 10:29:18;;;;;;;11.38;1.88;;;;;;;;;;4876797;28;20230;-84
2021/10/02 10:31:41;;;;;;;3.90;0.70;;;;;;;;;;4879976;28;20730;-80
2021/10/02 10:34:05;;;;;;;5.03;0.90;;;35.00;50.10;;;;;;4879859;28;20181;-76
2021/10/02 10:36:31;;;;;;;3.47;0.68;;;35.10;50.30;;;;;;4878440;28;20208;-76
2021/10/02 10:38:55;;;;;;;6.93;1.00;;;35.80;50.70;;;;;;4879648;28;20239;-76
2021/10/02 10:41:20;;;;;;;9.77;1.63;;;35.20;51.20;;;;;;4879375;28;20295;-79
2021/10/02 10:43:44;;;;;;;4.72;0.88;;;35.50;50.50;;;;;;4878465;28;20601;-75
2021/10/02 10:46:10;;;;;;;3.55;0.60;;;34.80;51.00;;;;;;4879385;28;20208;-79
2021/10/02 10:48:32;;;;;;;5.00;0.90;;;34.80;51.10;;;;;;4879516;28;20678;-75
2021/10/02 10:51:02;;;;;;;5.07;0.95;;;36.20;50.60;;;;;;4879571;28;20181;-81
2021/10/02 10:53:33;;;;;;;4.05;0.70;;;34.80;50.30;;;;;;4879063;28;20267;-77
2021/10/02 10:55:57;;;;;;;5.55;0.98;;;34.60;50.20;;;;;;4878233;28;20223;-91
2021/10/02 10:58:25;;;;;;;7.78;1.35;;;35.90;51.40;;;;;;4879682;28;20185;-80
2021/10/02 11:00:48;;;;;;;12.73;2.20;;;35.50;51.30;;;;;;4877533;28;20185;-80
2021/10/02 11:03:11;;;;;;;10.40;1.75;;;34.50;50.20;;;;;;4879159;28;20263;-80
2021/10/02 11:06:01;;;;;;;4.10;0.70;;;34.80;50.20;;;;;;4879710;28;20197;-83
2021/10/02 11:08:25;;;;;;;9.60;1.63;;;;;;;;;;4879300;28;20274;-81
2021/10/02 11:10:59;;;;;;;3.03;0.63;;;32.90;50.40;;;;;;4879188;28;20184;-84
2021/10/02 11:13:59;;;;;;;9.73;1.70;;;33.60;49.70;;;;;;4877617;28;20215;-80
2021/10/02 11:16:34;;;;;;;7.63;1.30;;;34.40;50.90;;;;;;4837888;28;20606;-80
2021/10/02 11:18:56;;;;;;;4.38;0.82;;;34.00;50.10;;;;;;4871166;28;20204;-82
2021/10/02 11:21:20;;;;;;;11.02;1.92;;;35.40;51.20;;;;;;4878861;28;20181;-80
2021/10/02 11:24:04;;;;;;;5.70;1.10;;;35.00;51.20;;;;;;4878910;28;20185;-81
2021/10/02 11:26:29;;;;;;;3.30;0.63;;;34.90;50.30;;;;;;4879586;28;20208;-78
2021/10/02 11:29:16;;;;;;;5.63;1.00;;;34.50;51.00;;;;;;4878831;28;20203;-77
2021/10/02 11:31:39;;;;;;;4.87;1.00;;;;;;;;;;4878940;28;20185;-79
2021/10/02 11:34:03;;;;;;;5.20;0.97;;;33.80;50.80;;;;;;4878446;28;20235;-79
2021/10/02 11:36:43;;;;;;;3.67;0.70;;;33.60;50.70;;;;;;4877552;28;20204;-77
2021/10/02 11:39:12;;;;;;;3.73;0.73;;;34.60;50.90;;;;;;4878807;28;20189;-77
2021/10/02 11:41:38;;;;;;;4.53;0.83;;;35.00;51.10;;;;;;4877826;28;20266;-78
2021/10/02 11:44:00;;;;;;;3.55;0.63;;;37.00;50.90;;;;;;4878635;28;20227;-78
2021/10/02 11:46:25;;;;;;;11.13;1.80;;;37.40;51.10;;;;;;4877984;28;20615;-79
2021/10/02 11:48:48;;;;;;;4.25;0.88;;;;;;;;;;4877557;28;20197;-85
2021/10/02 11:51:20;;;;;;;4.82;0.88;;;37.20;51.10;;;;;;4860343;28;20251;-80
2021/10/02 11:53:44;;;;;;;4.25;0.77;;;38.80;51.60;;;;;;4878800;28;20229;-80
2021/10/02 11:56:12;;;;;;;3.92;0.77;;;37.80;51.30;;;;;;4878073;28;20601;-76
2021/10/02 11:58:42;;;;;;;4.68;0.88;;;36.90;51.00;;;;;;4877272;28;20205;-80
2021/10/02 12:01:04;;;;;;;4.75;0.93;;;36.30;50.80;;;;;;4876488;28;20192;-78
2021/10/02 12:03:29;;;;;;;3.95;0.70;;;37.20;51.90;;;;;;4878295;28;20225;-86
2021/10/02 12:05:52;;;;;;;5.70;1.00;;;38.40;51.50;;;;;;4878053;28;20193;-78
2021/10/02 12:08:16;;;;;;;9.43;1.58;;;39.50;51.90;;;;;;4878452;28;20185;-86
2021/10/02 12:10:53;;;;;;;7.15;1.25;;;40.60;53.00;;;;;;4878255;28;20542;-85
2021/10/02 12:13:23;;;;;;;11.05;1.80;;;41.30;53.40;;;;;;4878877;28;20232;-83
2021/10/02 12:15:47;;;;;;;3.40;0.60;;;41.50;53.50;;;;;;4878297;28;20189;-83
2021/10/02 12:18:09;;;;;;;7.60;1.27;;;42.10;52.80;;;;;;4878477;28;20189;-87
2021/10/02 12:20:36;;;;;;;5.10;0.93;;;42.70;53.90;;;;;;4878158;28;20721;-79
2021/10/02 12:23:05;;;;;;;5.68;0.75;;;42.40;53.80;;;;;;4877983;28;20186;-86
2021/10/02 12:25:27;;;;;;;3.60;0.73;;;41.80;52.80;;;;;;4877991;28;20596;-87
2021/10/02 12:27:50;;;;;;;5.22;0.90;;;;;;;;;;4877872;28;20597;-82
2021/10/02 12:30:14;;;;;;;11.63;1.83;;;41.30;53.40;;;;;;4877897;28;20558;-76
2021/10/02 12:32:38;;;;;;;9.40;1.55;;;41.20;52.50;;;;;;4877868;28;20262;-89
2021/10/02 12:35:01;;;;;;;3.42;0.60;;;41.70;52.70;;;;;;4877850;28;20242;-84
2021/10/02 12:37:26;;;;;;;9.82;1.55;;;42.00;53.60;;;;;;4877565;28;20250;-82
2021/10/02 12:39:53;;;;;;;4.97;0.80;;;42.30;52.90;;;;;;4877885;28;20246;-86
2021/10/02 12:42:18;;;;;;;9.85;1.52;;;41.50;52.60;;;;;;4877732;28;20193;-79
2021/10/02 12:44:46;;;;;;;6.00;1.08;;;41.50;53.20;;;;;;4878186;28;20201;-78
2021/10/02 12:47:10;;;;;;;10.93;1.63;;;40.90;52.40;;;;;;4876441;28;20235;-83
2021/10/02 12:49:39;;;;;;;5.53;0.93;;;40.40;53.10;;;;;;4877272;28;20190;-83
2021/10/02 12:52:04;;;;;;;5.03;0.82;;;39.40;52.80;;;;;;4877268;28;20193;-79
2021/10/02 12:54:27;;;;;;;4.40;0.70;;;39.00;52.70;;;;;;4877383;28;20266;-81
2021/10/02 12:57:03;;;;;;;4.50;0.75;;;39.00;51.60;;;;;;4876741;28;20251;-81
2021/10/02 12:59:51;;;;;;;4.10;0.65;;;40.00;53.00;;;;;;4878124;28;20266;-83
2021/10/02 13:02:15;;;;;;;12.98;1.85;;;40.10;53.00;;;;;;4870902;28;20188;-77
2021/10/02 13:04:39;;;;;;;6.45;0.93;;;39.40;52.80;;;;;;4876278;28;20197;-84
2021/10/02 13:07:02;;;;;;;5.35;0.88;;;38.20;52.40;;;;;;4875839;28;20189;-82
2021/10/02 13:09:26;;;;;;;4.10;0.70;;;35.80;51.50;;;;;;4877235;28;20247;-86
2021/10/02 13:11:48;;;;;;;4.95;0.82;;;34.00;50.30;;;;;;4877953;28;20258;-86
2021/10/02 13:14:11;;;;;;;45.70;34.13;;;;;;;;;;4877242;28;20209;-88
2021/10/02 13:16:34;;;;;;;45.30;41.45;;;;;;;;;;4877664;28;20192;-84
2021/10/02 13:18:57;;;;;;;67.67;63.40;;;;;;;;;;4876571;28;20197;-84
2021/10/02 13:21:21;;;;;;;38.20;32.90;;;28.20;48.80;;;;;;4876046;28;20204;-89
2021/10/02 13:23:43;;;;;;;17.63;15.00;;;;;;;;;;4877337;28;20249;-85
2021/10/02 13:26:07;;;;;;;28.47;26.40;;;26.40;48.10;;;;;;4876653;28;20185;-81
2021/10/02 13:28:33;;;;;;;18.60;14.40;;;25.70;47.70;;;;;;4874888;28;20239;-84
2021/10/02 13:30:57;;;;;;;13.27;2.60;;;24.80;62.30;;;;;;4875189;28;20209;-77
2021/10/02 13:33:20;;;;;;;26.53;8.70;;;24.10;62.00;;;;;;4876302;28;20278;-77
2021/10/02 13:35:52;;;;;;;12.47;3.10;;;23.20;61.60;;;;;;4876293;28;20187;-80
2021/10/02 13:38:16;;;;;;;24.97;4.90;;;23.00;61.50;;;;;;4874979;28;20206;-83
2021/10/02 13:40:48;;;;;;;15.00;5.63;;;22.80;61.30;;;;;;4876952;28;20249;-79
2021/10/02 13:43:12;;;;;;;23.13;4.23;;;22.60;61.20;;;;;;4874425;28;20566;-79